LFST 210130Z AUTO 17005KT 120V230 9999 BKN038 BKN045 OVC084 15/13 Q1001 TEMPO 24025G45KT

ElémentsDécodage
LFST Station météo située sur l'aérodrome de STRASBOURG Entzheim
210130Z émis le 21 du mois à 01h30 UTC
AUTO Bulletin édité par un automate
17005KT vent du 170°, 05 noeuds
120V230 vent de direction variable entre 120° et 230°
9999 visibilité horizontale supérieure à 10 Km
BKN038 nuages morcelés (5/8 à 7/8) à 3800 pieds
BKN045 nuages morcelés (5/8 à 7/8) à 4500 pieds
OVC084 couverture nuageuse totale (8/8) à 8400 pieds
15/13 température 15°C, point de rosée 13°C
 soit une humidité relative de 88%
Q1001 la pression au niveau de la mer (QNH) est de 1001 hPa
TEMPO fluctuation temporaire prévue
24025G45KT vent du 240°, moyenne: 25 noeuds, avec rafales à 45 noeuds